sensor_id;sensor_type;location;lat;lon;timestamp;temperature;humidity
1379;DHT22;683;48.738;9.226;2022-10-31T00:01:10;12.10;99.90
1379;DHT22;683;48.738;9.226;2022-10-31T00:03:38;12.10;99.90
1379;DHT22;683;48.738;9.226;2022-10-31T00:06:06;12.10;99.90
1379;DHT22;683;48.738;9.226;2022-10-31T00:08:33;12.00;99.90
1379;DHT22;683;48.738;9.226;2022-10-31T00:11:01;12.00;99.90
1379;DHT22;683;48.738;9.226;2022-10-31T00:13:28;12.00;99.90
1379;DHT22;683;48.738;9.226;2022-10-31T00:15:57;12.00;99.90
1379;DHT22;683;48.738;9.226;2022-10-31T00:18:24;12.10;99.90
1379;DHT22;683;48.738;9.226;2022-10-31T00:20:59;12.10;99.90
1379;DHT22;683;48.738;9.226;2022-10-31T00:23:26;12.10;99.90
1379;DHT22;683;48.738;9.226;2022-10-31T00:25:54;12.10;99.90
1379;DHT22;683;48.738;9.226;2022-10-31T00:28:26;12.00;99.90
1379;DHT22;683;48.738;9.226;2022-10-31T00:30:59;12.00;99.90
1379;DHT22;683;48.738;9.226;2022-10-31T00:33:27;11.90;99.90
1379;DHT22;683;48.738;9.226;2022-10-31T00:35:55;11.90;99.90
1379;DHT22;683;48.738;9.226;2022-10-31T00:38:22;11.90;99.90
1379;DHT22;683;48.738;9.226;2022-10-31T00:40:50;11.90;99.90
1379;DHT22;683;48.738;9.226;2022-10-31T00:43:18;11.90;99.90
1379;DHT22;683;48.738;9.226;2022-10-31T00:45:45;11.90;99.90
1379;DHT22;683;48.738;9.226;2022-10-31T00:48:14;11.80;99.90
1379;DHT22;683;48.738;9.226;2022-10-31T00:50:42;11.80;99.90
1379;DHT22;683;48.738;9.226;2022-10-31T00:53:10;11.80;99.90
1379;DHT22;683;48.738;9.226;2022-10-31T00:55:38;11.80;99.90
1379;DHT22;683;48.738;9.226;2022-10-31T00:58:05;11.70;99.90
1379;DHT22;683;48.738;9.226;2022-10-31T01:00:32;11.70;99.90
1379;DHT22;683;48.738;9.226;2022-10-31T01:03:01;11.60;99.90
1379;DHT22;683;48.738;9.226;2022-10-31T01:05:30;11.60;99.90
1379;DHT22;683;48.738;9.226;2022-10-31T01:07:58;11.60;99.90
1379;DHT22;683;48.738;9.226;2022-10-31T01:10:27;11.60;99.90
1379;DHT22;683;48.738;9.226;2022-10-31T01:12:54;11.60;99.90
1379;DHT22;683;48.738;9.226;2022-10-31T01:15:23;11.60;99.90
1379;DHT22;683;48.738;9.226;2022-10-31T01:17:50;11.50;99.90
1379;DHT22;683;48.738;9.226;2022-10-31T01:20:18;11.50;99.90
1379;DHT22;683;48.738;9.226;2022-10-31T01:22:47;11.50;99.90
1379;DHT22;683;48.738;9.226;2022-10-31T01:25:15;11.50;99.90
1379;DHT22;683;48.738;9.226;2022-10-31T01:27:42;11.50;99.90
1379;DHT22;683;48.738;9.226;2022-10-31T01:30:11;11.50;99.90
1379;DHT22;683;48.738;9.226;2022-10-31T01:32:38;11.40;99.90
1379;DHT22;683;48.738;9.226;2022-10-31T01:35:06;11.40;99.90
1379;DHT22;683;48.738;9.226;2022-10-31T01:37:34;11.40;99.90
1379;DHT22;683;48.738;9.226;2022-10-31T01:40:03;11.40;99.90
1379;DHT22;683;48.738;9.226;2022-10-31T01:42:31;11.30;99.90
1379;DHT22;683;48.738;9.226;2022-10-31T01:45:00;11.30;99.90
1379;DHT22;683;48.738;9.226;2022-10-31T01:47:36;11.30;99.90
1379;DHT22;683;48.738;9.226;2022-10-31T01:50:11;11.30;99.90
1379;DHT22;683;48.738;9.226;2022-10-31T01:52:41;11.30;99.90
1379;DHT22;683;48.738;9.226;2022-10-31T01:55:14;11.30;99.90
1379;DHT22;683;48.738;9.226;2022-10-31T01:57:45;11.30;99.90
1379;DHT22;683;48.738;9.226;2022-10-31T02:00:17;11.20;99.90
1379;DHT22;683;48.738;9.226;2022-10-31T02:02:46;11.20;99.90
1379;DHT22;683;48.738;9.226;2022-10-31T02:05:18;11.20;99.90
1379;DHT22;683;48.738;9.226;2022-10-31T02:07:52;11.20;99.90
1379;DHT22;683;48.738;9.226;2022-10-31T02:10:29;11.20;99.90
1379;DHT22;683;48.738;9.226;2022-10-31T02:13:01;11.10;99.90
1379;DHT22;683;48.738;9.226;2022-10-31T02:15:30;11.10;99.90
1379;DHT22;683;48.738;9.226;2022-10-31T02:17:59;11.10;99.90
1379;DHT22;683;48.738;9.226;2022-10-31T02:20:31;11.00;99.90
1379;DHT22;683;48.738;9.226;2022-10-31T02:26:37;10.90;99.90
1379;DHT22;683;48.738;9.226;2022-10-31T02:29:23;10.90;99.90
1379;DHT22;683;48.738;9.226;2022-10-31T02:32:00;10.90;99.90
1379;DHT22;683;48.738;9.226;2022-10-31T02:34:34;10.90;99.90
1379;DHT22;683;48.738;9.226;2022-10-31T02:37:10;10.90;99.90
1379;DHT22;683;48.738;9.226;2022-10-31T02:39:44;10.90;99.90
1379;DHT22;683;48.738;9.226;2022-10-31T02:42:24;10.80;99.90
1379;DHT22;683;48.738;9.226;2022-10-31T02:45:02;10.70;99.90
1379;DHT22;683;48.738;9.226;2022-10-31T02:47:36;10.70;99.90
1379;DHT22;683;48.738;9.226;2022-10-31T02:50:07;10.60;99.90
1379;DHT22;683;48.738;9.226;2022-10-31T02:52:38;10.50;99.90
1379;DHT22;683;48.738;9.226;2022-10-31T02:55:10;10.50;99.90
1379;DHT22;683;48.738;9.226;2022-10-31T02:57:39;10.40;99.90
1379;DHT22;683;48.738;9.226;2022-10-31T03:00:08;10.40;99.90
1379;DHT22;683;48.738;9.226;2022-10-31T03:02:58;10.40;99.90
1379;DHT22;683;48.738;9.226;2022-10-31T03:05:44;10.30;99.90
1379;DHT22;683;48.738;9.226;2022-10-31T03:08:20;10.30;99.90
1379;DHT22;683;48.738;9.226;2022-10-31T03:10:54;10.30;99.90
1379;DHT22;683;48.738;9.226;2022-10-31T03:13:29;10.30;99.90
1379;DHT22;683;48.738;9.226;2022-10-31T03:16:07;10.20;99.90
1379;DHT22;683;48.738;9.226;2022-10-31T03:18:40;10.20;99.90
1379;DHT22;683;48.738;9.226;2022-10-31T03:21:11;10.20;99.90
1379;DHT22;683;48.738;9.226;2022-10-31T03:23:39;10.20;99.90
1379;DHT22;683;48.738;9.226;2022-10-31T03:26:09;10.10;99.90
1379;DHT22;683;48.738;9.226;2022-10-31T03:28:42;10.10;99.90
1379;DHT22;683;48.738;9.226;2022-10-31T03:31:11;10.10;99.90
1379;DHT22;683;48.738;9.226;2022-10-31T03:33:42;10.00;99.90
1379;DHT22;683;48.738;9.226;2022-10-31T03:36:12;10.10;99.90
1379;DHT22;683;48.738;9.226;2022-10-31T03:38:44;10.10;99.90
1379;DHT22;683;48.738;9.226;2022-10-31T03:41:18;10.10;99.90
1379;DHT22;683;48.738;9.226;2022-10-31T03:43:52;10.10;99.90
1379;DHT22;683;48.738;9.226;2022-10-31T03:46:23;10.10;99.90
1379;DHT22;683;48.738;9.226;2022-10-31T03:48:55;10.10;99.90
1379;DHT22;683;48.738;9.226;2022-10-31T03:51:28;10.10;99.90
1379;DHT22;683;48.738;9.226;2022-10-31T03:54:03;10.10;99.90
1379;DHT22;683;48.738;9.226;2022-10-31T03:56:34;10.10;99.90
1379;DHT22;683;48.738;9.226;2022-10-31T03:59:07;10.10;99.90
1379;DHT22;683;48.738;9.226;2022-10-31T04:01:41;10.10;99.90
1379;DHT22;683;48.738;9.226;2022-10-31T04:04:11;10.10;99.90
1379;DHT22;683;48.738;9.226;2022-10-31T04:06:42;10.10;99.90
1379;DHT22;683;48.738;9.226;2022-10-31T04:09:11;10.10;99.90
1379;DHT22;683;48.738;9.226;2022-10-31T04:11:45;10.10;99.90
1379;DHT22;683;48.738;9.226;2022-10-31T04:14:47;10.10;99.90
1379;DHT22;683;48.738;9.226;2022-10-31T04:17:18;10.10;99.90
1379;DHT22;683;48.738;9.226;2022-10-31T04:19:48;10.10;99.90
1379;DHT22;683;48.738;9.226;2022-10-31T04:22:16;10.00;99.90
1379;DHT22;683;48.738;9.226;2022-10-31T04:24:43;10.00;99.90
1379;DHT22;683;48.738;9.226;2022-10-31T04:27:14;9.90;99.90
1379;DHT22;683;48.738;9.226;2022-10-31T04:29:42;9.90;99.90
1379;DHT22;683;48.738;9.226;2022-10-31T04:32:09;9.90;99.90
1379;DHT22;683;48.738;9.226;2022-10-31T04:34:37;9.90;99.90
1379;DHT22;683;48.738;9.226;2022-10-31T04:37:06;9.90;99.90
1379;DHT22;683;48.738;9.226;2022-10-31T04:39:33;9.80;99.90
1379;DHT22;683;48.738;9.226;2022-10-31T04:42:21;9.80;99.90
1379;DHT22;683;48.738;9.226;2022-10-31T04:44:48;9.80;99.90
1379;DHT22;683;48.738;9.226;2022-10-31T04:47:16;9.80;99.90
1379;DHT22;683;48.738;9.226;2022-10-31T04:49:43;9.80;99.90
1379;DHT22;683;48.738;9.226;2022-10-31T04:52:14;9.80;99.90
1379;DHT22;683;48.738;9.226;2022-10-31T04:54:42;9.80;99.90
1379;DHT22;683;48.738;9.226;2022-10-31T04:57:28;9.80;99.90
1379;DHT22;683;48.738;9.226;2022-10-31T04:59:58;9.70;99.90
1379;DHT22;683;48.738;9.226;2022-10-31T05:02:26;9.70;99.90
1379;DHT22;683;48.738;9.226;2022-10-31T05:04:56;9.70;99.90
1379;DHT22;683;48.738;9.226;2022-10-31T05:07:25;9.60;99.90
1379;DHT22;683;48.738;9.226;2022-10-31T05:09:52;9.60;99.90
1379;DHT22;683;48.738;9.226;2022-10-31T05:12:20;9.50;99.90
1379;DHT22;683;48.738;9.226;2022-10-31T05:15:17;9.50;99.90
1379;DHT22;683;48.738;9.226;2022-10-31T05:18:03;9.50;99.90
1379;DHT22;683;48.738;9.226;2022-10-31T05:20:49;9.40;99.90
1379;DHT22;683;48.738;9.226;2022-10-31T05:23:28;9.40;99.90
1379;DHT22;683;48.738;9.226;2022-10-31T05:25:56;9.30;99.90
1379;DHT22;683;48.738;9.226;2022-10-31T05:28:23;9.30;99.90
1379;DHT22;683;48.738;9.226;2022-10-31T05:30:51;9.20;99.90
1379;DHT22;683;48.738;9.226;2022-10-31T05:33:18;9.20;99.90
1379;DHT22;683;48.738;9.226;2022-10-31T05:36:05;9.20;99.90
1379;DHT22;683;48.738;9.226;2022-10-31T05:38:46;9.10;99.90
1379;DHT22;683;48.738;9.226;2022-10-31T05:41:23;9.10;99.90
1379;DHT22;683;48.738;9.226;2022-10-31T05:43:54;9.10;99.90
1379;DHT22;683;48.738;9.226;2022-10-31T05:46:27;9.10;99.90
1379;DHT22;683;48.738;9.226;2022-10-31T05:49:21;9.10;99.90
1379;DHT22;683;48.738;9.226;2022-10-31T05:51:57;9.00;99.90
1379;DHT22;683;48.738;9.226;2022-10-31T05:54:34;9.00;99.90
1379;DHT22;683;48.738;9.226;2022-10-31T05:57:02;9.00;99.90
1379;DHT22;683;48.738;9.226;2022-10-31T05:59:30;8.90;99.90
1379;DHT22;683;48.738;9.226;2022-10-31T06:01:58;8.90;99.90
1379;DHT22;683;48.738;9.226;2022-10-31T06:04:46;8.90;99.90
1379;DHT22;683;48.738;9.226;2022-10-31T06:07:13;8.90;99.90
1379;DHT22;683;48.738;9.226;2022-10-31T06:09:42;8.90;99.90
1379;DHT22;683;48.738;9.226;2022-10-31T06:12:10;8.90;99.90
1379;DHT22;683;48.738;9.226;2022-10-31T06:15:13;8.90;99.90
1379;DHT22;683;48.738;9.226;2022-10-31T06:17:42;8.90;99.90
1379;DHT22;683;48.738;9.226;2022-10-31T06:20:30;8.90;99.90
1379;DHT22;683;48.738;9.226;2022-10-31T06:23:05;8.90;99.90
1379;DHT22;683;48.738;9.226;2022-10-31T06:25:35;9.00;99.90
1379;DHT22;683;48.738;9.226;2022-10-31T06:28:04;9.00;99.90
1379;DHT22;683;48.738;9.226;2022-10-31T06:30:55;9.00;99.90
1379;DHT22;683;48.738;9.226;2022-10-31T06:33:23;9.00;99.90
1379;DHT22;683;48.738;9.226;2022-10-31T06:36:00;9.10;99.90
1379;DHT22;683;48.738;9.226;2022-10-31T06:38:28;9.10;99.90
1379;DHT22;683;48.738;9.226;2022-10-31T06:41:02;9.10;99.90
1379;DHT22;683;48.738;9.226;2022-10-31T06:43:38;9.20;99.90
1379;DHT22;683;48.738;9.226;2022-10-31T06:46:31;9.20;99.90
1379;DHT22;683;48.738;9.226;2022-10-31T06:49:31;9.30;99.90
1379;DHT22;683;48.738;9.226;2022-10-31T06:52:01;9.30;99.90
1379;DHT22;683;48.738;9.226;2022-10-31T06:54:29;9.40;99.90
1379;DHT22;683;48.738;9.226;2022-10-31T06:56:58;9.40;99.90
1379;DHT22;683;48.738;9.226;2022-10-31T06:59:27;9.40;99.90
1379;DHT22;683;48.738;9.226;2022-10-31T07:02:17;9.40;99.90
1379;DHT22;683;48.738;9.226;2022-10-31T07:04:45;9.40;99.90
1379;DHT22;683;48.738;9.226;2022-10-31T07:07:14;9.50;99.90
1379;DHT22;683;48.738;9.226;2022-10-31T07:09:41;9.50;99.90
1379;DHT22;683;48.738;9.226;2022-10-31T07:12:12;9.60;99.90
1379;DHT22;683;48.738;9.226;2022-10-31T07:14:47;9.60;99.90
1379;DHT22;683;48.738;9.226;2022-10-31T07:17:15;9.70;99.90
1379;DHT22;683;48.738;9.226;2022-10-31T07:19:44;9.80;99.90
1379;DHT22;683;48.738;9.226;2022-10-31T07:22:15;9.80;99.90
1379;DHT22;683;48.738;9.226;2022-10-31T07:24:44;9.90;99.90
1379;DHT22;683;48.738;9.226;2022-10-31T07:27:12;10.00;99.90
1379;DHT22;683;48.738;9.226;2022-10-31T07:29:42;10.00;99.90
1379;DHT22;683;48.738;9.226;2022-10-31T07:32:11;10.10;99.90
1379;DHT22;683;48.738;9.226;2022-10-31T07:34:45;10.10;99.90
1379;DHT22;683;48.738;9.226;2022-10-31T07:37:21;10.10;99.90
1379;DHT22;683;48.738;9.226;2022-10-31T07:39:49;10.10;99.90
1379;DHT22;683;48.738;9.226;2022-10-31T07:42:18;10.10;99.90
1379;DHT22;683;48.738;9.226;2022-10-31T07:44:45;10.10;99.90
1379;DHT22;683;48.738;9.226;2022-10-31T07:47:22;10.20;99.90
1379;DHT22;683;48.738;9.226;2022-10-31T07:50:09;10.20;99.90
1379;DHT22;683;48.738;9.226;2022-10-31T07:53:10;10.20;99.90
1379;DHT22;683;48.738;9.226;2022-10-31T07:55:48;10.40;99.90
1379;DHT22;683;48.738;9.226;2022-10-31T07:58:19;10.50;99.90
1379;DHT22;683;48.738;9.226;2022-10-31T08:00:47;10.50;99.90
1379;DHT22;683;48.738;9.226;2022-10-31T08:03:24;10.60;99.90
1379;DHT22;683;48.738;9.226;2022-10-31T08:06:09;10.60;99.90
1379;DHT22;683;48.738;9.226;2022-10-31T08:08:55;10.70;99.90
1379;DHT22;683;48.738;9.226;2022-10-31T08:11:22;10.80;99.90
1379;DHT22;683;48.738;9.226;2022-10-31T08:13:51;10.80;99.90
1379;DHT22;683;48.738;9.226;2022-10-31T08:16:19;10.90;99.90
1379;DHT22;683;48.738;9.226;2022-10-31T08:18:54;10.90;99.90
1379;DHT22;683;48.738;9.226;2022-10-31T08:21:23;11.00;99.90
1379;DHT22;683;48.738;9.226;2022-10-31T08:23:50;11.10;99.90
1379;DHT22;683;48.738;9.226;2022-10-31T08:26:21;11.10;99.90
1379;DHT22;683;48.738;9.226;2022-10-31T08:28:52;11.20;99.90
1379;DHT22;683;48.738;9.226;2022-10-31T08:31:21;11.30;99.90
1379;DHT22;683;48.738;9.226;2022-10-31T08:33:49;11.40;99.90
1379;DHT22;683;48.738;9.226;2022-10-31T08:36:19;11.50;99.90
1379;DHT22;683;48.738;9.226;2022-10-31T08:38:59;11.50;99.90
1379;DHT22;683;48.738;9.226;2022-10-31T08:41:28;11.70;99.90
1379;DHT22;683;48.738;9.226;2022-10-31T08:43:57;11.80;99.90
1379;DHT22;683;48.738;9.226;2022-10-31T08:46:25;11.90;99.90
1379;DHT22;683;48.738;9.226;2022-10-31T08:48:53;12.10;99.90
1379;DHT22;683;48.738;9.226;2022-10-31T08:51:20;12.30;99.90
1379;DHT22;683;48.738;9.226;2022-10-31T08:53:52;12.30;99.90
1379;DHT22;683;48.738;9.226;2022-10-31T08:56:38;12.30;99.90
1379;DHT22;683;48.738;9.226;2022-10-31T08:59:22;12.40;99.90
1379;DHT22;683;48.738;9.226;2022-10-31T09:02:28;12.50;99.90
1379;DHT22;683;48.738;9.226;2022-10-31T09:04:59;12.60;99.90
1379;DHT22;683;48.738;9.226;2022-10-31T09:07:27;12.70;99.90
1379;DHT22;683;48.738;9.226;2022-10-31T09:09:55;12.70;99.90
1379;DHT22;683;48.738;9.226;2022-10-31T09:12:23;12.70;99.90
1379;DHT22;683;48.738;9.226;2022-10-31T09:15:11;12.80;99.90
1379;DHT22;683;48.738;9.226;2022-10-31T09:17:53;12.90;99.90
1379;DHT22;683;48.738;9.226;2022-10-31T09:20:37;12.90;99.90
1379;DHT22;683;48.738;9.226;2022-10-31T09:23:08;12.90;99.90
1379;DHT22;683;48.738;9.226;2022-10-31T09:25:38;12.90;99.90
1379;DHT22;683;48.738;9.226;2022-10-31T09:28:24;13.10;99.90
1379;DHT22;683;48.738;9.226;2022-10-31T09:30:55;13.30;99.90
1379;DHT22;683;48.738;9.226;2022-10-31T09:33:55;13.40;99.90
1379;DHT22;683;48.738;9.226;2022-10-31T09:36:45;13.50;99.90
1379;DHT22;683;48.738;9.226;2022-10-31T09:39:17;13.60;99.90
1379;DHT22;683;48.738;9.226;2022-10-31T09:44:50;13.70;99.90
1379;DHT22;683;48.738;9.226;2022-10-31T09:47:40;13.80;99.90
1379;DHT22;683;48.738;9.226;2022-10-31T09:50:38;13.80;99.90
1379;DHT22;683;48.738;9.226;2022-10-31T09:53:37;13.90;99.90
1379;DHT22;683;48.738;9.226;2022-10-31T09:56:08;13.90;99.90
1379;DHT22;683;48.738;9.226;2022-10-31T09:58:41;14.00;99.90
1379;DHT22;683;48.738;9.226;2022-10-31T10:01:34;14.10;99.90
1379;DHT22;683;48.738;9.226;2022-10-31T10:04:21;14.30;99.90
1379;DHT22;683;48.738;9.226;2022-10-31T10:07:08;14.50;99.90
1379;DHT22;683;48.738;9.226;2022-10-31T10:09:57;14.60;99.90
1379;DHT22;683;48.738;9.226;2022-10-31T10:13:08;14.90;99.90
1379;DHT22;683;48.738;9.226;2022-10-31T10:18:43;15.40;99.90
1379;DHT22;683;48.738;9.226;2022-10-31T10:21:22;15.50;99.90
1379;DHT22;683;48.738;9.226;2022-10-31T10:24:03;15.70;99.90
1379;DHT22;683;48.738;9.226;2022-10-31T10:26:36;15.60;99.90
1379;DHT22;683;48.738;9.226;2022-10-31T10:29:17;15.70;99.90
1379;DHT22;683;48.738;9.226;2022-10-31T10:31:45;15.90;99.90
1379;DHT22;683;48.738;9.226;2022-10-31T10:34:19;16.00;99.90
1379;DHT22;683;48.738;9.226;2022-10-31T10:36:53;16.10;99.90
1379;DHT22;683;48.738;9.226;2022-10-31T10:39:24;15.90;99.90
1379;DHT22;683;48.738;9.226;2022-10-31T10:41:52;15.90;99.90
1379;DHT22;683;48.738;9.226;2022-10-31T10:44:42;16.20;99.90
1379;DHT22;683;48.738;9.226;2022-10-31T10:47:34;16.50;99.90
1379;DHT22;683;48.738;9.226;2022-10-31T10:50:10;16.60;99.90
1379;DHT22;683;48.738;9.226;2022-10-31T10:52:46;16.60;99.90
1379;DHT22;683;48.738;9.226;2022-10-31T10:55:24;16.70;99.90
1379;DHT22;683;48.738;9.226;2022-10-31T10:57:56;16.70;99.90
1379;DHT22;683;48.738;9.226;2022-10-31T11:00:26;16.70;99.90
1379;DHT22;683;48.738;9.226;2022-10-31T11:02:55;16.70;99.90
1379;DHT22;683;48.738;9.226;2022-10-31T11:05:25;16.70;99.90
1379;DHT22;683;48.738;9.226;2022-10-31T11:07:54;16.60;99.90
1379;DHT22;683;48.738;9.226;2022-10-31T11:10:22;16.60;99.90
1379;DHT22;683;48.738;9.226;2022-10-31T11:13:06;16.80;99.90
1379;DHT22;683;48.738;9.226;2022-10-31T11:15:37;16.80;99.90
1379;DHT22;683;48.738;9.226;2022-10-31T11:18:19;16.90;99.90
1379;DHT22;683;48.738;9.226;2022-10-31T11:20:51;17.10;99.90
1379;DHT22;683;48.738;9.226;2022-10-31T11:23:22;17.20;99.90
1379;DHT22;683;48.738;9.226;2022-10-31T11:25:51;17.40;99.90
1379;DHT22;683;48.738;9.226;2022-10-31T11:28:20;17.50;99.90
1379;DHT22;683;48.738;9.226;2022-10-31T11:30:48;17.60;99.90
1379;DHT22;683;48.738;9.226;2022-10-31T11:33:21;17.70;99.90
1379;DHT22;683;48.738;9.226;2022-10-31T11:35:50;17.70;99.90
1379;DHT22;683;48.738;9.226;2022-10-31T11:38:24;17.80;99.90
1379;DHT22;683;48.738;9.226;2022-10-31T11:40:56;17.90;99.90
1379;DHT22;683;48.738;9.226;2022-10-31T11:43:25;18.10;99.90
1379;DHT22;683;48.738;9.226;2022-10-31T11:45:53;18.00;99.90
1379;DHT22;683;48.738;9.226;2022-10-31T11:48:22;18.20;99.90
1379;DHT22;683;48.738;9.226;2022-10-31T11:50:52;18.20;99.90
1379;DHT22;683;48.738;9.226;2022-10-31T11:53:26;18.30;99.90
1379;DHT22;683;48.738;9.226;2022-10-31T11:56:04;18.50;99.90
1379;DHT22;683;48.738;9.226;2022-10-31T11:58:32;18.40;99.90
1379;DHT22;683;48.738;9.226;2022-10-31T12:00:59;18.50;99.90
1379;DHT22;683;48.738;9.226;2022-10-31T12:03:34;18.40;99.90
1379;DHT22;683;48.738;9.226;2022-10-31T12:06:06;18.20;99.90
1379;DHT22;683;48.738;9.226;2022-10-31T12:08:37;18.20;99.90
1379;DHT22;683;48.738;9.226;2022-10-31T12:11:12;18.20;99.90
1379;DHT22;683;48.738;9.226;2022-10-31T12:13:56;18.30;99.90
1379;DHT22;683;48.738;9.226;2022-10-31T12:16:31;18.40;99.90
1379;DHT22;683;48.738;9.226;2022-10-31T12:19:03;18.60;99.90
1379;DHT22;683;48.738;9.226;2022-10-31T12:24:42;18.80;99.90
1379;DHT22;683;48.738;9.226;2022-10-31T12:27:21;18.90;99.90
1379;DHT22;683;48.738;9.226;2022-10-31T12:30:09;19.20;99.90
1379;DHT22;683;48.738;9.226;2022-10-31T12:32:49;19.20;98.80
1379;DHT22;683;48.738;9.226;2022-10-31T12:35:33;19.10;98.60
1379;DHT22;683;48.738;9.226;2022-10-31T12:38:25;19.10;98.60
1379;DHT22;683;48.738;9.226;2022-10-31T12:41:11;18.90;98.70
1379;DHT22;683;48.738;9.226;2022-10-31T12:43:46;18.80;99.80
1379;DHT22;683;48.738;9.226;2022-10-31T12:46:25;18.70;99.80
1379;DHT22;683;48.738;9.226;2022-10-31T12:49:14;18.70;99.90
1379;DHT22;683;48.738;9.226;2022-10-31T12:51:52;18.60;99.90
1379;DHT22;683;48.738;9.226;2022-10-31T12:54:37;18.40;99.90
1379;DHT22;683;48.738;9.226;2022-10-31T12:57:17;18.50;99.90
1379;DHT22;683;48.738;9.226;2022-10-31T12:59:52;18.40;99.90
1379;DHT22;683;48.738;9.226;2022-10-31T13:02:23;18.40;99.90
1379;DHT22;683;48.738;9.226;2022-10-31T13:04:55;18.40;99.90
1379;DHT22;683;48.738;9.226;2022-10-31T13:07:27;18.30;99.90
1379;DHT22;683;48.738;9.226;2022-10-31T13:10:00;18.30;99.90
1379;DHT22;683;48.738;9.226;2022-10-31T13:12:31;18.30;99.90
1379;DHT22;683;48.738;9.226;2022-10-31T13:15:03;18.30;99.90
1379;DHT22;683;48.738;9.226;2022-10-31T13:17:37;18.20;99.90
1379;DHT22;683;48.738;9.226;2022-10-31T13:20:17;18.10;99.90
1379;DHT22;683;48.738;9.226;2022-10-31T13:22:50;18.20;99.90
1379;DHT22;683;48.738;9.226;2022-10-31T13:25:23;18.20;99.90
1379;DHT22;683;48.738;9.226;2022-10-31T13:27:55;18.20;99.90
1379;DHT22;683;48.738;9.226;2022-10-31T13:30:26;18.20;99.90
1379;DHT22;683;48.738;9.226;2022-10-31T13:32:58;18.20;99.90
1379;DHT22;683;48.738;9.226;2022-10-31T13:35:33;18.30;99.90
1379;DHT22;683;48.738;9.226;2022-10-31T13:38:14;18.30;99.90
1379;DHT22;683;48.738;9.226;2022-10-31T13:40:50;18.40;99.90
1379;DHT22;683;48.738;9.226;2022-10-31T13:43:31;18.70;99.90
1379;DHT22;683;48.738;9.226;2022-10-31T13:46:01;19.30;99.90
1379;DHT22;683;48.738;9.226;2022-10-31T13:48:36;19.70;99.90
1379;DHT22;683;48.738;9.226;2022-10-31T13:51:06;20.00;99.90
1379;DHT22;683;48.738;9.226;2022-10-31T13:53:45;20.00;99.90
1379;DHT22;683;48.738;9.226;2022-10-31T13:56:18;20.10;99.60
1379;DHT22;683;48.738;9.226;2022-10-31T13:59:01;19.90;99.70
1379;DHT22;683;48.738;9.226;2022-10-31T14:01:30;20.00;99.90
1379;DHT22;683;48.738;9.226;2022-10-31T14:04:05;20.00;99.80
1379;DHT22;683;48.738;9.226;2022-10-31T14:06:39;20.00;98.80
1379;DHT22;683;48.738;9.226;2022-10-31T14:09:19;20.10;99.00
1379;DHT22;683;48.738;9.226;2022-10-31T14:11:48;19.80;98.20
1379;DHT22;683;48.738;9.226;2022-10-31T14:14:18;19.70;98.10
1379;DHT22;683;48.738;9.226;2022-10-31T14:16:53;19.60;98.00
1379;DHT22;683;48.738;9.226;2022-10-31T14:19:22;19.50;98.20
1379;DHT22;683;48.738;9.226;2022-10-31T14:21:50;19.40;98.30
1379;DHT22;683;48.738;9.226;2022-10-31T14:24:33;19.40;98.60
1379;DHT22;683;48.738;9.226;2022-10-31T14:27:03;19.40;97.10
1379;DHT22;683;48.738;9.226;2022-10-31T14:29:33;19.50;96.80
1379;DHT22;683;48.738;9.226;2022-10-31T14:32:06;19.50;96.30
1379;DHT22;683;48.738;9.226;2022-10-31T14:34:52;19.30;97.00
1379;DHT22;683;48.738;9.226;2022-10-31T14:37:33;19.30;97.40
1379;DHT22;683;48.738;9.226;2022-10-31T14:40:22;19.20;96.20
1379;DHT22;683;48.738;9.226;2022-10-31T14:45:53;18.90;96.50
1379;DHT22;683;48.738;9.226;2022-10-31T14:48:39;18.70;97.20
1379;DHT22;683;48.738;9.226;2022-10-31T14:51:14;18.50;97.80
1379;DHT22;683;48.738;9.226;2022-10-31T14:53:46;18.10;98.40
1379;DHT22;683;48.738;9.226;2022-10-31T14:56:19;18.00;98.60
1379;DHT22;683;48.738;9.226;2022-10-31T14:58:48;18.00;98.80
1379;DHT22;683;48.738;9.226;2022-10-31T15:01:23;17.80;99.20
1379;DHT22;683;48.738;9.226;2022-10-31T15:03:52;17.60;99.50
1379;DHT22;683;48.738;9.226;2022-10-31T15:06:22;17.60;99.10
1379;DHT22;683;48.738;9.226;2022-10-31T15:08:51;17.60;99.40
1379;DHT22;683;48.738;9.226;2022-10-31T15:11:20;17.70;99.80
1379;DHT22;683;48.738;9.226;2022-10-31T15:13:48;17.70;99.90
1379;DHT22;683;48.738;9.226;2022-10-31T15:16:21;17.60;99.90
1379;DHT22;683;48.738;9.226;2022-10-31T15:18:52;17.60;99.90
1379;DHT22;683;48.738;9.226;2022-10-31T15:21:22;17.60;99.90
1379;DHT22;683;48.738;9.226;2022-10-31T15:23:52;17.50;99.90
1379;DHT22;683;48.738;9.226;2022-10-31T15:26:22;17.40;99.90
1379;DHT22;683;48.738;9.226;2022-10-31T15:29:00;17.30;99.90
1379;DHT22;683;48.738;9.226;2022-10-31T15:31:29;17.20;99.90
1379;DHT22;683;48.738;9.226;2022-10-31T15:34:01;16.90;99.90
1379;DHT22;683;48.738;9.226;2022-10-31T15:36:30;16.90;99.90
1379;DHT22;683;48.738;9.226;2022-10-31T15:38:58;16.70;99.90
1379;DHT22;683;48.738;9.226;2022-10-31T15:41:31;16.60;99.90
1379;DHT22;683;48.738;9.226;2022-10-31T15:44:04;16.50;99.90
1379;DHT22;683;48.738;9.226;2022-10-31T15:46:35;16.30;99.90
1379;DHT22;683;48.738;9.226;2022-10-31T15:49:03;16.20;99.90
1379;DHT22;683;48.738;9.226;2022-10-31T15:51:33;16.10;99.90
1379;DHT22;683;48.738;9.226;2022-10-31T15:54:03;15.90;99.90
1379;DHT22;683;48.738;9.226;2022-10-31T15:56:32;15.80;99.90
1379;DHT22;683;48.738;9.226;2022-10-31T15:59:01;15.60;99.90
1379;DHT22;683;48.738;9.226;2022-10-31T16:01:30;15.50;99.90
1379;DHT22;683;48.738;9.226;2022-10-31T16:04:20;15.30;99.90
1379;DHT22;683;48.738;9.226;2022-10-31T16:06:58;15.20;99.90
1379;DHT22;683;48.738;9.226;2022-10-31T16:09:26;15.10;99.90
1379;DHT22;683;48.738;9.226;2022-10-31T16:11:56;15.00;99.90
1379;DHT22;683;48.738;9.226;2022-10-31T16:14:27;15.00;99.90
1379;DHT22;683;48.738;9.226;2022-10-31T16:16:56;14.90;99.90
1379;DHT22;683;48.738;9.226;2022-10-31T16:19:29;14.80;99.90
1379;DHT22;683;48.738;9.226;2022-10-31T16:22:03;14.70;99.90
1379;DHT22;683;48.738;9.226;2022-10-31T16:24:35;14.60;99.90
1379;DHT22;683;48.738;9.226;2022-10-31T16:27:06;14.60;99.90
1379;DHT22;683;48.738;9.226;2022-10-31T16:29:39;14.50;99.90
1379;DHT22;683;48.738;9.226;2022-10-31T16:32:24;14.40;99.90
1379;DHT22;683;48.738;9.226;2022-10-31T16:37:41;14.20;99.90
1379;DHT22;683;48.738;9.226;2022-10-31T16:40:10;14.10;99.90
1379;DHT22;683;48.738;9.226;2022-10-31T16:42:39;14.10;99.90
1379;DHT22;683;48.738;9.226;2022-10-31T16:45:08;14.10;99.90
1379;DHT22;683;48.738;9.226;2022-10-31T16:47:40;14.00;99.90
1379;DHT22;683;48.738;9.226;2022-10-31T16:50:14;13.90;99.90
1379;DHT22;683;48.738;9.226;2022-10-31T16:52:42;13.80;99.90
1379;DHT22;683;48.738;9.226;2022-10-31T16:55:13;13.70;99.90
1379;DHT22;683;48.738;9.226;2022-10-31T16:57:43;13.70;99.90
1379;DHT22;683;48.738;9.226;2022-10-31T17:00:15;13.60;99.90
1379;DHT22;683;48.738;9.226;2022-10-31T17:02:43;13.60;99.90
1379;DHT22;683;48.738;9.226;2022-10-31T17:05:15;13.60;99.90
1379;DHT22;683;48.738;9.226;2022-10-31T17:07:43;13.60;99.90
1379;DHT22;683;48.738;9.226;2022-10-31T17:10:11;13.50;99.90
1379;DHT22;683;48.738;9.226;2022-10-31T17:12:42;13.50;99.90
1379;DHT22;683;48.738;9.226;2022-10-31T17:15:16;13.50;99.90
1379;DHT22;683;48.738;9.226;2022-10-31T17:17:45;13.50;99.90
1379;DHT22;683;48.738;9.226;2022-10-31T17:20:19;13.50;99.90
1379;DHT22;683;48.738;9.226;2022-10-31T17:22:47;13.40;99.90